»·PEaware :: N557FG KPHX-KINW

N557FG :: KPHX-KINW

FLIGHT INFORMATION

Flight Status: Arrived
Operator: Privately registered:
United States
More flights under this callsign
Pilot: Ian W. (8444)
Aircraft: CESSNA 182 SKYLANE
(C182)
More flights by this aircraft type
Origin: KPHX Phoenix Sky Harbor Intl
United States
Destination: KINW Winslow-Lindbergh Regl
United States
More flights between these airports :: More routes between these airports
Route: PXR INW
File this flight plan on PilotEdge
Remarks:
Altitude:
(Current/Filed)
11,000ft
Speed:
(Current/Filed)
120kts
Departed: 14-Jan-17 02:56 PM
Arrived: 14-Jan-17 03:58 PM
Distance/Time
Traveled:
115nm/1:01
Distance/Time
To Go:
Arrived

Flight Plot

Page will automatically refresh every two minutes.

Flight plan parsing failed; only flown route is shown


Map Options




Map Legend


Flown Route
Filed Route
Departure Airport
Arrival Airport
Navaid (VOR, NDB)
Fix

Horizontal Profiles

Position Reports

Time Latitude Longitude Heading Altitude Ground
Speed
14-Jan-17 14:35 33.425667 -112.022859 270 1138ft 0kts
14-Jan-17 14:36 33.425667 -112.022866 270 1138ft 0kts
14-Jan-17 14:37 33.425667 -112.022873 270 1138ft 0kts
14-Jan-17 14:38 33.425667 -112.022881 270 1138ft 0kts
14-Jan-17 14:39 33.425667 -112.022888 270 1138ft 0kts
14-Jan-17 14:40 33.425667 -112.022895 270 1138ft 0kts
14-Jan-17 14:41 33.425667 -112.022903 270 1138ft 0kts
14-Jan-17 14:42 33.425667 -112.022910 270 1138ft 0kts
14-Jan-17 14:43 33.425667 -112.022917 270 1138ft 0kts
14-Jan-17 14:44 33.425667 -112.022925 270 1138ft 0kts
14-Jan-17 14:45 33.425667 -112.022932 270 1138ft 0kts
14-Jan-17 14:46 33.425667 -112.022942 270 1138ft 0kts
14-Jan-17 14:47 33.425667 -112.022952 270 1138ft 0kts
14-Jan-17 14:48 33.425667 -112.022960 270 1138ft 0kts
14-Jan-17 14:49 33.425668 -112.022969 270 1138ft 0kts
14-Jan-17 14:50 33.425668 -112.022978 270 1138ft 0kts
14-Jan-17 14:51 33.425668 -112.022990 270 1138ft 0kts
14-Jan-17 14:52 33.425668 -112.022997 270 1138ft 0kts
14-Jan-17 14:53 33.425668 -112.022999 270 1138ft 0kts
14-Jan-17 14:54 33.425969 -112.022630 81 1138ft 13kts
14-Jan-17 14:55 33.427823 -112.026040 270 1138ft 14kts
14-Jan-17 14:56 33.428770 -112.018894 93 1261ft 74kts
14-Jan-17 14:57 33.426748 -111.990629 96 2270ft 91kts
14-Jan-17 14:58 33.422011 -111.959728 99 3109ft 96kts
14-Jan-17 14:59 33.418458 -111.927222 87 3797ft 98kts
14-Jan-17 15:00 33.435996 -111.902544 28 4754ft 103kts
14-Jan-17 15:01 33.462853 -111.883799 23 5421ft 119kts
14-Jan-17 15:02 33.496391 -111.868358 23 6030ft 138kts
14-Jan-17 15:03 33.530809 -111.850497 25 6575ft 130kts
14-Jan-17 15:04 33.563019 -111.832546 26 7163ft 125kts
14-Jan-17 15:05 33.594151 -111.814147 27 7766ft 123kts
14-Jan-17 15:06 33.624629 -111.795396 28 8369ft 123kts
14-Jan-17 15:07 33.656488 -111.775145 29 9014ft 137kts
14-Jan-17 15:08 33.680284 -111.741784 51 9581ft 128kts
14-Jan-17 15:09 33.704055 -111.710703 45 10171ft 125kts
14-Jan-17 15:10 33.729140 -111.682014 40 10768ft 124kts
14-Jan-17 15:11 33.757409 -111.653090 35 11028ft 150kts
14-Jan-17 15:12 33.792551 -111.621674 31 11027ft 161kts
14-Jan-17 15:13 33.830033 -111.591548 28 11031ft 162kts
14-Jan-17 15:14 33.869756 -111.566306 17 11038ft 160kts
14-Jan-17 15:15 33.910083 -111.542761 22 11045ft 161kts
14-Jan-17 15:16 33.949943 -111.517705 22 11051ft 161kts
14-Jan-17 15:17 33.989699 -111.492379 23 11057ft 161kts
14-Jan-17 15:18 34.028146 -111.465211 27 11122ft 160kts
14-Jan-17 15:19 34.068312 -111.440476 20 11070ft 162kts
14-Jan-17 15:20 34.108384 -111.416133 22 11072ft 161kts
14-Jan-17 15:21 34.148179 -111.390851 23 11079ft 163kts
14-Jan-17 15:22 34.186694 -111.366109 22 11070ft 148kts
14-Jan-17 15:23 34.222232 -111.343297 22 11078ft 142kts
14-Jan-17 15:24 34.257407 -111.320697 22 11013ft 145kts
14-Jan-17 15:25 34.295489 -111.294772 29 11010ft 171kts
14-Jan-17 15:26 34.306724 -111.287021 23 11000ft 166kts
14-Jan-17 15:27 34.340584 -111.266546 22 10998ft 160kts
14-Jan-17 15:28 34.379945 -111.241576 23 10996ft 159kts
14-Jan-17 15:29 34.401311 -111.227830 23 10993ft 159kts
14-Jan-17 15:30 34.433992 -111.206730 23 10990ft 158kts
14-Jan-17 15:31 34.472928 -111.181542 23 10985ft 158kts
14-Jan-17 15:32 34.511834 -111.156340 23 10980ft 158kts
14-Jan-17 15:33 34.550793 -111.131074 23 10976ft 158kts
14-Jan-17 15:34 34.589507 -111.105939 23 10971ft 157kts
14-Jan-17 15:35 34.628160 -111.080834 23 10966ft 157kts
14-Jan-17 15:36 34.666768 -111.055721 24 10962ft 157kts
14-Jan-17 15:37 34.703885 -111.025928 29 10857ft 159kts
14-Jan-17 15:38 34.743740 -111.003253 18 10840ft 153kts
14-Jan-17 15:39 34.775396 -110.985014 18 10944ft 151kts
14-Jan-17 15:40 34.813709 -110.961328 23 10939ft 155kts
14-Jan-17 15:41 34.857790 -110.930610 22 10925ft 156kts
14-Jan-17 15:42 34.888586 -110.910932 23 11025ft 147kts
14-Jan-17 15:43 34.925461 -110.897246 331 10993ft 135kts
14-Jan-17 15:44 34.951121 -110.932405 297 10822ft 121kts
14-Jan-17 15:45 34.971143 -110.967313 297 10331ft 128kts
14-Jan-17 15:46 35.002640 -110.991214 343 9832ft 142kts
14-Jan-17 15:47 35.035060 -110.996988 341 9484ft 138kts
14-Jan-17 15:48 35.073825 -111.000568 9 9010ft 141kts
14-Jan-17 15:49 35.110438 -110.983954 17 8509ft 140kts
14-Jan-17 15:50 35.121926 -110.945695 125 7518ft 132kts
14-Jan-17 15:51 35.103823 -110.909996 117 6349ft 122kts
14-Jan-17 15:52 35.090364 -110.879265 116 6180ft 99kts
14-Jan-17 15:53 35.081869 -110.849331 106 5937ft 104kts
14-Jan-17 15:54 35.074415 -110.817309 108 5278ft 92kts
14-Jan-17 15:55 35.058786 -110.791590 119 5591ft 100kts
14-Jan-17 15:56 35.045456 -110.762341 123 5564ft 91kts
14-Jan-17 15:57 35.033574 -110.737299 120 5116ft 82kts
14-Jan-17 15:58 35.024758 -110.718516 123 4900ft 19kts
14-Jan-17 15:59 35.022457 -110.718861 218 4900ft 13kts
14-Jan-17 16:00 35.021803 -110.718869 167 4900ft 0kts
14-Jan-17 16:01 35.021803 -110.718869 167 4900ft 0kts
14-Jan-17 16:02 35.021803 -110.718869 167 4900ft 0kts
14-Jan-17 16:03 35.021803 -110.718869 167 4900ft 0kts
14-Jan-17 16:04 35.021803 -110.718869 167 4900ft 0kts
14-Jan-17 16:05 35.021803 -110.718869 167 4900ft 0kts
14-Jan-17 16:06 35.021803 -110.718869 167 4900ft 0kts
14-Jan-17 16:07 35.021803 -110.718869 167 4900ft 0kts
14-Jan-17 16:08 35.021803 -110.718869 167 4900ft 0kts
14-Jan-17 16:09 35.021803 -110.718869 167 4900ft 0kts
14-Jan-17 16:10 35.021803 -110.718869 167 4900ft 0kts
14-Jan-17 16:11 35.021803 -110.718869 167 4900ft 0kts
14-Jan-17 16:12 35.021803 -110.718869 167 4900ft 0kts

Navigation Log

Ident Type
Flight plan parsing failed, navigation log unavailable